sensor_id;sensor_type;location;lat;lon;timestamp;temperature;humidity
42803;DHT22;28447;48.682;9.022;2023-08-20T14:18:48;38.90;84.10
42803;DHT22;28447;48.682;9.022;2023-08-20T14:21:13;38.80;85.90
42803;DHT22;28447;48.682;9.022;2023-08-20T14:23:39;38.80;86.30
42803;DHT22;28447;48.682;9.022;2023-08-20T14:26:06;38.20;83.50
42803;DHT22;28447;48.682;9.022;2023-08-20T14:28:32;37.00;85.90
42803;DHT22;28447;48.682;9.022;2023-08-20T14:31:04;36.10;90.00
42803;DHT22;28447;48.682;9.022;2023-08-20T14:33:31;37.50;86.90
42803;DHT22;28447;48.682;9.022;2023-08-20T14:35:56;38.90;84.40
42803;DHT22;28447;48.682;9.022;2023-08-20T14:38:22;39.10;86.70
42803;DHT22;28447;48.682;9.022;2023-08-20T14:40:48;38.10;86.40
42803;DHT22;28447;48.682;9.022;2023-08-20T14:43:13;37.80;88.10
42803;DHT22;28447;48.682;9.022;2023-08-20T14:45:39;37.10;86.50
42803;DHT22;28447;48.682;9.022;2023-08-20T14:48:05;36.70;88.70
42803;DHT22;28447;48.682;9.022;2023-08-20T14:50:31;35.40;90.00
42803;DHT22;28447;48.682;9.022;2023-08-20T14:52:57;35.10;92.00
42803;DHT22;28447;48.682;9.022;2023-08-20T14:55:22;35.50;90.50
42803;DHT22;28447;48.682;9.022;2023-08-20T14:57:48;35.80;88.80
42803;DHT22;28447;48.682;9.022;2023-08-20T15:00:14;35.40;90.30
42803;DHT22;28447;48.682;9.022;2023-08-20T15:02:46;35.90;90.70
42803;DHT22;28447;48.682;9.022;2023-08-20T15:05:12;37.70;90.70
42803;DHT22;28447;48.682;9.022;2023-08-20T15:07:38;37.70;88.50
42803;DHT22;28447;48.682;9.022;2023-08-20T15:10:04;37.00;90.10
42803;DHT22;28447;48.682;9.022;2023-08-20T15:12:33;38.30;86.70
42803;DHT22;28447;48.682;9.022;2023-08-20T15:15:00;39.50;87.00
42803;DHT22;28447;48.682;9.022;2023-08-20T15:17:26;40.50;85.90
42803;DHT22;28447;48.682;9.022;2023-08-20T15:19:52;42.00;82.30
42803;DHT22;28447;48.682;9.022;2023-08-20T15:22:17;41.70;79.00
42803;DHT22;28447;48.682;9.022;2023-08-20T15:24:43;41.20;82.90
42803;DHT22;28447;48.682;9.022;2023-08-20T15:27:08;41.00;86.30
42803;DHT22;28447;48.682;9.022;2023-08-20T15:29:34;40.10;82.90
42803;DHT22;28447;48.682;9.022;2023-08-20T15:31:59;39.10;87.70
42803;DHT22;28447;48.682;9.022;2023-08-20T15:34:25;38.20;86.20
42803;DHT22;28447;48.682;9.022;2023-08-20T15:36:51;38.20;90.60
42803;DHT22;28447;48.682;9.022;2023-08-20T15:39:16;39.10;90.30
42803;DHT22;28447;48.682;9.022;2023-08-20T15:41:44;40.80;89.90
42803;DHT22;28447;48.682;9.022;2023-08-20T15:44:12;41.50;85.00
42803;DHT22;28447;48.682;9.022;2023-08-20T15:46:38;42.10;85.00
42803;DHT22;28447;48.682;9.022;2023-08-20T15:49:04;41.70;83.70
42803;DHT22;28447;48.682;9.022;2023-08-20T15:51:29;41.40;86.50
42803;DHT22;28447;48.682;9.022;2023-08-20T15:53:55;41.60;85.00
42803;DHT22;28447;48.682;9.022;2023-08-20T15:56:21;41.00;83.90
42803;DHT22;28447;48.682;9.022;2023-08-20T15:58:47;39.60;86.30
42803;DHT22;28447;48.682;9.022;2023-08-20T16:01:13;39.40;87.90
42803;DHT22;28447;48.682;9.022;2023-08-20T16:03:39;38.90;90.20
42803;DHT22;28447;48.682;9.022;2023-08-20T16:06:05;40.00;90.30
42803;DHT22;28447;48.682;9.022;2023-08-20T16:08:30;39.60;86.40
42803;DHT22;28447;48.682;9.022;2023-08-20T16:10:56;38.60;90.50
42803;DHT22;28447;48.682;9.022;2023-08-20T16:13:22;37.40;92.00
42803;DHT22;28447;48.682;9.022;2023-08-20T16:15:48;38.80;90.30
42803;DHT22;28447;48.682;9.022;2023-08-20T16:18:14;38.90;90.00
42803;DHT22;28447;48.682;9.022;2023-08-20T16:20:39;39.80;86.60
42803;DHT22;28447;48.682;9.022;2023-08-20T16:23:05;40.50;89.20
42803;DHT22;28447;48.682;9.022;2023-08-20T16:25:30;39.40;89.60
42803;DHT22;28447;48.682;9.022;2023-08-20T16:28:01;37.60;91.50
42803;DHT22;28447;48.682;9.022;2023-08-20T16:30:27;38.70;91.10
42803;DHT22;28447;48.682;9.022;2023-08-20T16:32:52;38.40;90.80
42803;DHT22;28447;48.682;9.022;2023-08-20T16:35:18;38.80;91.00
42803;DHT22;28447;48.682;9.022;2023-08-20T16:37:44;38.70;90.80
42803;DHT22;28447;48.682;9.022;2023-08-20T16:40:20;36.70;91.40
42803;DHT22;28447;48.682;9.022;2023-08-20T16:42:45;36.10;91.80
42803;DHT22;28447;48.682;9.022;2023-08-20T16:45:11;35.10;93.10
42803;DHT22;28447;48.682;9.022;2023-08-20T16:47:37;34.60;94.40
42803;DHT22;28447;48.682;9.022;2023-08-20T16:50:02;34.00;96.20
42803;DHT22;28447;48.682;9.022;2023-08-20T16:52:28;34.70;94.70
42803;DHT22;28447;48.682;9.022;2023-08-20T16:54:54;34.70;95.00
42803;DHT22;28447;48.682;9.022;2023-08-20T16:57:20;34.10;94.90
42803;DHT22;28447;48.682;9.022;2023-08-20T16:59:45;34.40;94.30
42803;DHT22;28447;48.682;9.022;2023-08-20T17:02:11;34.50;94.00
42803;DHT22;28447;48.682;9.022;2023-08-20T17:04:37;34.60;94.00
42803;DHT22;28447;48.682;9.022;2023-08-20T17:07:03;34.90;94.50
42803;DHT22;28447;48.682;9.022;2023-08-20T17:09:30;34.40;95.70
42803;DHT22;28447;48.682;9.022;2023-08-20T17:11:56;34.60;94.50
42803;DHT22;28447;48.682;9.022;2023-08-20T17:14:22;34.40;95.30
42803;DHT22;28447;48.682;9.022;2023-08-20T17:16:47;33.90;96.30
42803;DHT22;28447;48.682;9.022;2023-08-20T17:19:14;33.20;96.50
42803;DHT22;28447;48.682;9.022;2023-08-20T17:21:39;32.80;95.50
42803;DHT22;28447;48.682;9.022;2023-08-20T17:24:05;32.50;95.50
42803;DHT22;28447;48.682;9.022;2023-08-20T17:26:31;32.20;95.70
42803;DHT22;28447;48.682;9.022;2023-08-20T17:28:56;32.00;95.60
42803;DHT22;28447;48.682;9.022;2023-08-20T17:31:22;32.30;95.30
42803;DHT22;28447;48.682;9.022;2023-08-20T17:33:48;32.40;94.60
42803;DHT22;28447;48.682;9.022;2023-08-20T17:36:13;32.30;94.90
42803;DHT22;28447;48.682;9.022;2023-08-20T17:38:39;32.40;94.60
42803;DHT22;28447;48.682;9.022;2023-08-20T17:41:05;32.10;94.80
42803;DHT22;28447;48.682;9.022;2023-08-20T17:43:31;32.40;95.00
42803;DHT22;28447;48.682;9.022;2023-08-20T17:45:57;31.80;95.40
42803;DHT22;28447;48.682;9.022;2023-08-20T17:48:23;31.70;94.60
42803;DHT22;28447;48.682;9.022;2023-08-20T17:50:48;31.40;94.80
42803;DHT22;28447;48.682;9.022;2023-08-20T17:53:14;31.90;95.70
42803;DHT22;28447;48.682;9.022;2023-08-20T17:55:39;32.10;95.10
42803;DHT22;28447;48.682;9.022;2023-08-20T17:58:07;32.10;94.60
42803;DHT22;28447;48.682;9.022;2023-08-20T18:00:33;32.00;95.20
42803;DHT22;28447;48.682;9.022;2023-08-20T18:02:58;31.90;97.90
42803;DHT22;28447;48.682;9.022;2023-08-20T18:05:24;32.00;97.60
42803;DHT22;28447;48.682;9.022;2023-08-20T18:07:53;31.90;98.80
42803;DHT22;28447;48.682;9.022;2023-08-20T18:10:19;31.90;98.30
42803;DHT22;28447;48.682;9.022;2023-08-20T18:12:45;31.80;95.20
42803;DHT22;28447;48.682;9.022;2023-08-20T18:15:11;31.60;95.50
42803;DHT22;28447;48.682;9.022;2023-08-20T18:17:36;31.50;95.70
42803;DHT22;28447;48.682;9.022;2023-08-20T18:20:03;31.30;95.90
42803;DHT22;28447;48.682;9.022;2023-08-20T18:22:29;31.10;96.00
42803;DHT22;28447;48.682;9.022;2023-08-20T18:24:55;31.00;96.50
42803;DHT22;28447;48.682;9.022;2023-08-20T18:27:20;30.90;96.70
42803;DHT22;28447;48.682;9.022;2023-08-20T18:29:47;30.70;97.40
42803;DHT22;28447;48.682;9.022;2023-08-20T18:32:13;30.60;97.30
42803;DHT22;28447;48.682;9.022;2023-08-20T18:34:39;30.50;97.40
42803;DHT22;28447;48.682;9.022;2023-08-20T18:37:04;30.30;97.80
42803;DHT22;28447;48.682;9.022;2023-08-20T18:39:30;30.10;98.40
42803;DHT22;28447;48.682;9.022;2023-08-20T18:41:55;30.00;98.70
42803;DHT22;28447;48.682;9.022;2023-08-20T18:44:21;29.90;99.00
42803;DHT22;28447;48.682;9.022;2023-08-20T18:46:47;29.80;99.50
42803;DHT22;28447;48.682;9.022;2023-08-20T18:49:12;29.70;99.80
42803;DHT22;28447;48.682;9.022;2023-08-20T18:51:38;29.60;99.90
42803;DHT22;28447;48.682;9.022;2023-08-20T18:54:03;29.50;99.90
42803;DHT22;28447;48.682;9.022;2023-08-20T18:56:29;29.40;99.90
42803;DHT22;28447;48.682;9.022;2023-08-20T18:58:55;29.40;99.90
42803;DHT22;28447;48.682;9.022;2023-08-20T19:01:21;29.30;99.90
42803;DHT22;28447;48.682;9.022;2023-08-20T19:03:46;29.10;99.90
42803;DHT22;28447;48.682;9.022;2023-08-20T19:06:12;29.10;99.90
42803;DHT22;28447;48.682;9.022;2023-08-20T19:08:38;29.00;99.90
42803;DHT22;28447;48.682;9.022;2023-08-20T19:11:03;29.00;99.90
42803;DHT22;28447;48.682;9.022;2023-08-20T19:13:29;28.90;99.90
42803;DHT22;28447;48.682;9.022;2023-08-20T19:15:55;28.80;99.90
42803;DHT22;28447;48.682;9.022;2023-08-20T19:18:22;28.70;99.90
42803;DHT22;28447;48.682;9.022;2023-08-20T19:20:53;28.50;99.90
42803;DHT22;28447;48.682;9.022;2023-08-20T19:23:20;28.50;99.90
42803;DHT22;28447;48.682;9.022;2023-08-20T19:25:47;28.50;99.90
42803;DHT22;28447;48.682;9.022;2023-08-20T19:28:13;28.40;99.90
42803;DHT22;28447;48.682;9.022;2023-08-20T19:30:49;28.30;99.90
42803;DHT22;28447;48.682;9.022;2023-08-20T19:33:17;28.20;99.90
42803;DHT22;28447;48.682;9.022;2023-08-20T19:38:11;28.10;99.90
42803;DHT22;28447;48.682;9.022;2023-08-20T19:40:37;28.00;99.90
42803;DHT22;28447;48.682;9.022;2023-08-20T19:43:07;28.00;99.90
42803;DHT22;28447;48.682;9.022;2023-08-20T19:45:33;27.80;99.90
42803;DHT22;28447;48.682;9.022;2023-08-20T19:47:59;27.80;99.90
42803;DHT22;28447;48.682;9.022;2023-08-20T19:50:25;27.90;99.90
42803;DHT22;28447;48.682;9.022;2023-08-20T19:52:50;27.80;99.90
42803;DHT22;28447;48.682;9.022;2023-08-20T19:55:17;27.60;99.90
42803;DHT22;28447;48.682;9.022;2023-08-20T19:57:43;27.40;99.90
42803;DHT22;28447;48.682;9.022;2023-08-20T20:05:05;27.40;99.90
42803;DHT22;28447;48.682;9.022;2023-08-20T20:07:34;27.30;99.90
42803;DHT22;28447;48.682;9.022;2023-08-20T20:10:00;27.20;99.90
42803;DHT22;28447;48.682;9.022;2023-08-20T20:12:25;27.10;99.90
42803;DHT22;28447;48.682;9.022;2023-08-20T20:14:51;27.00;99.90
42803;DHT22;28447;48.682;9.022;2023-08-20T20:17:17;26.90;99.90
42803;DHT22;28447;48.682;9.022;2023-08-20T20:19:42;26.90;99.90
42803;DHT22;28447;48.682;9.022;2023-08-20T20:22:08;26.70;99.90
42803;DHT22;28447;48.682;9.022;2023-08-20T20:24:33;26.70;99.90
42803;DHT22;28447;48.682;9.022;2023-08-20T20:26:59;26.60;99.90
42803;DHT22;28447;48.682;9.022;2023-08-20T20:29:25;26.40;99.90
42803;DHT22;28447;48.682;9.022;2023-08-20T20:31:50;26.50;99.90
42803;DHT22;28447;48.682;9.022;2023-08-20T20:34:16;26.50;99.90
42803;DHT22;28447;48.682;9.022;2023-08-20T20:36:41;26.60;99.90
42803;DHT22;28447;48.682;9.022;2023-08-20T20:39:07;26.20;99.90
42803;DHT22;28447;48.682;9.022;2023-08-20T20:41:34;25.90;99.90
42803;DHT22;28447;48.682;9.022;2023-08-20T20:43:59;25.70;99.90
42803;DHT22;28447;48.682;9.022;2023-08-20T20:46:25;25.50;99.90
42803;DHT22;28447;48.682;9.022;2023-08-20T20:48:50;25.40;99.90
42803;DHT22;28447;48.682;9.022;2023-08-20T20:51:16;25.30;99.90
42803;DHT22;28447;48.682;9.022;2023-08-20T20:53:42;25.20;99.90
42803;DHT22;28447;48.682;9.022;2023-08-20T20:56:08;25.10;99.90
42803;DHT22;28447;48.682;9.022;2023-08-20T20:58:33;24.90;99.90
42803;DHT22;28447;48.682;9.022;2023-08-20T21:00:59;24.90;99.90
42803;DHT22;28447;48.682;9.022;2023-08-20T21:03:24;24.70;99.90
42803;DHT22;28447;48.682;9.022;2023-08-20T21:05:50;24.70;99.90
42803;DHT22;28447;48.682;9.022;2023-08-20T21:08:16;24.70;99.90
42803;DHT22;28447;48.682;9.022;2023-08-20T21:10:41;24.70;99.90
42803;DHT22;28447;48.682;9.022;2023-08-20T21:13:08;24.80;99.90
42803;DHT22;28447;48.682;9.022;2023-08-20T21:15:36;24.60;99.90
42803;DHT22;28447;48.682;9.022;2023-08-20T21:18:02;24.50;99.90
42803;DHT22;28447;48.682;9.022;2023-08-20T21:20:27;24.60;99.90
42803;DHT22;28447;48.682;9.022;2023-08-20T21:22:53;24.90;99.90
42803;DHT22;28447;48.682;9.022;2023-08-20T21:25:20;25.00;99.90
42803;DHT22;28447;48.682;9.022;2023-08-20T21:27:45;25.00;99.90
42803;DHT22;28447;48.682;9.022;2023-08-20T21:30:12;24.80;99.90
42803;DHT22;28447;48.682;9.022;2023-08-20T21:32:38;24.70;99.90
42803;DHT22;28447;48.682;9.022;2023-08-20T21:35:04;24.60;99.90
42803;DHT22;28447;48.682;9.022;2023-08-20T21:37:30;24.50;99.90
42803;DHT22;28447;48.682;9.022;2023-08-20T21:39:55;24.40;99.90
42803;DHT22;28447;48.682;9.022;2023-08-20T21:42:21;24.30;99.90
42803;DHT22;28447;48.682;9.022;2023-08-20T21:44:47;24.10;99.90
42803;DHT22;28447;48.682;9.022;2023-08-20T21:47:23;24.00;99.90
42803;DHT22;28447;48.682;9.022;2023-08-20T21:49:49;23.90;99.90
42803;DHT22;28447;48.682;9.022;2023-08-20T21:52:15;23.90;99.90
42803;DHT22;28447;48.682;9.022;2023-08-20T21:54:41;23.80;99.90
42803;DHT22;28447;48.682;9.022;2023-08-20T21:57:21;23.80;99.90
42803;DHT22;28447;48.682;9.022;2023-08-20T21:59:48;23.80;99.90
